Time;durP1;ratioP1;P1;durP2;ratioP2;P2;SDS_P1;SDS_P2;PMS_P1;PMS_P2;Temp;Humidity;BMP_temperature;BMP_pressure;BME280_temperature;BME280_humidity;BME280_pressure;Samples;Min_cycle;Max_cycle;Signal;HPM_P1;HPM_P2
2023/12/05 00:01:15;;;;;;;;;;;17.00;52.30;;;;;;5024605;28;42983;-81
2023/12/05 00:03:41;;;;;;;;;;;17.10;52.90;;;;;;5023150;28;45290;-81
2023/12/05 00:06:10;;;;;;;;;;;17.10;53.00;;;;;;5025298;28;43031;-81
2023/12/05 00:08:35;;;;;;;;;;;17.10;52.40;;;;;;5024525;28;43837;-80
2023/12/05 00:11:02;;;;;;;;;;;17.20;52.50;;;;;;5024687;28;42942;-81
2023/12/05 00:13:28;;;;;;;;;;;17.10;52.40;;;;;;5024424;28;43500;-81
2023/12/05 00:15:53;;;;;;;;;;;17.10;53.10;;;;;;5024442;28;42987;-82
2023/12/05 00:18:19;;;;;;;;;;;17.10;52.90;;;;;;5022951;28;43241;-88
2023/12/05 00:20:45;;;;;;;;;;;17.20;52.50;;;;;;5024228;28;43101;-81
2023/12/05 00:23:11;;;;;;;;;;;17.10;53.00;;;;;;5024016;28;43048;-86
2023/12/05 00:25:36;;;;;;;;;;;17.00;52.50;;;;;;5024320;28;43031;-82
2023/12/05 00:28:02;;;;;;;;;;;17.20;52.50;;;;;;5024225;28;42952;-80
2023/12/05 00:30:28;;;;;;;;;;;17.00;52.40;;;;;;5019231;28;43084;-79
2023/12/05 00:32:53;;;;;;;;;;;17.10;52.40;;;;;;5020941;28;42925;-80
2023/12/05 00:35:19;;;;;;;;;;;17.10;53.20;;;;;;5025013;28;42927;-83
2023/12/05 00:37:45;;;;;;;;;;;17.00;52.40;;;;;;5024361;28;42872;-85
2023/12/05 00:40:11;;;;;;;;;;;17.00;53.00;;;;;;5023893;28;43066;-87
2023/12/05 00:42:36;;;;;;;;;;;17.10;52.90;;;;;;5023330;28;43460;-86
2023/12/05 00:45:02;;;;;;;;;;;17.10;53.10;;;;;;5021956;28;42930;-83
2023/12/05 00:47:28;;;;;;;;;;;17.10;53.00;;;;;;5023655;28;42952;-80
2023/12/05 00:49:53;;;;;;;;;;;17.40;52.60;;;;;;5022844;28;43087;-79
2023/12/05 00:52:19;;;;;;;;;;;17.20;52.50;;;;;;5024087;28;43807;-88
2023/12/05 00:54:44;;;;;;;;;;;17.10;52.50;;;;;;5024270;28;42967;-87
2023/12/05 00:57:10;;;;;;;;;;;17.20;52.60;;;;;;5024170;28;42967;-80
2023/12/05 00:59:35;;;;;;;;;;;17.20;52.60;;;;;;5024448;28;43117;-86
2023/12/05 01:02:01;;;;;;;;;;;17.00;52.90;;;;;;5021908;28;42991;-86
2023/12/05 01:04:27;;;;;;;;;;;17.00;52.60;;;;;;5024873;28;43106;-80
2023/12/05 01:06:52;;;;;;;;;;;17.00;53.20;;;;;;5023701;28;43006;-83
2023/12/05 01:09:18;;;;;;;;;;;17.00;52.50;;;;;;5023634;28;42994;-80
2023/12/05 01:11:44;;;;;;;;;;;16.90;53.10;;;;;;5023384;28;44327;-86
2023/12/05 01:14:09;;;;;;;;;;;16.90;53.00;;;;;;5023827;28;42936;-80
2023/12/05 01:16:40;;;;;;;;;;;17.00;53.10;;;;;;5022981;28;43573;-81
2023/12/05 01:19:06;;;;;;;;;;;17.00;52.40;;;;;;5024680;28;43185;-79
2023/12/05 01:21:31;;;;;;;;;;;17.00;52.40;;;;;;5025770;28;42899;-81
2023/12/05 01:23:57;;;;;;;;;;;16.90;52.50;;;;;;5024537;28;42983;-83
2023/12/05 01:26:22;;;;;;;;;;;17.10;52.60;;;;;;5023616;28;43469;-82
2023/12/05 01:28:48;;;;;;;;;;;17.00;52.50;;;;;;5024579;28;42889;-83
2023/12/05 01:31:14;;;;;;;;;;;17.00;53.20;;;;;;5023182;28;43098;-84
2023/12/05 01:33:39;;;;;;;;;;;17.00;53.00;;;;;;5023709;28;42975;-85
2023/12/05 01:36:09;;;;;;;;;;;17.10;52.50;;;;;;5023250;28;43478;-82
2023/12/05 01:38:34;;;;;;;;;;;17.00;52.50;;;;;;5023640;28;42979;-79
2023/12/05 01:41:00;;;;;;;;;;;17.00;52.40;;;;;;5023672;28;43022;-79
2023/12/05 01:43:25;;;;;;;;;;;17.00;52.50;;;;;;5026069;28;43255;-82
2023/12/05 01:45:51;;;;;;;;;;;16.90;52.20;;;;;;5026083;28;43064;-86
2023/12/05 01:48:16;;;;;;;;;;;17.10;52.30;;;;;;5027006;28;42967;-84
2023/12/05 01:50:43;;;;;;;;;;;16.80;52.20;;;;;;5026695;28;43578;-82
2023/12/05 01:53:09;;;;;;;;;;;17.00;52.30;;;;;;5025523;28;42786;-81
2023/12/05 01:55:35;;;;;;;;;;;17.00;52.30;;;;;;5026196;28;43876;-80
2023/12/05 01:58:00;;;;;;;;;;;16.90;52.70;;;;;;5027060;28;42840;-79
2023/12/05 02:00:27;;;;;;;;;;;16.90;52.80;;;;;;5026382;28;43562;-82
2023/12/05 02:02:54;;;;;;;;;;;17.00;52.30;;;;;;5026412;28;42928;-84
2023/12/05 02:05:20;;;;;;;;;;;16.90;52.30;;;;;;5026772;28;44193;-87
2023/12/05 02:07:46;;;;;;;;;;;17.00;52.30;;;;;;5030612;28;42947;-81
2023/12/05 02:10:11;;;;;;;;;;;16.90;52.70;;;;;;5026324;28;43498;-82
2023/12/05 02:12:40;;;;;;;;;;;17.00;52.30;;;;;;5040056;28;43265;-85
2023/12/05 02:15:06;;;;;;;;;;;16.90;52.30;;;;;;5040585;28;43464;-81
2023/12/05 02:17:35;;;;;;;;;;;17.00;52.30;;;;;;5027039;28;42898;-80
2023/12/05 02:20:06;;;;;;;;;;;17.00;52.30;;;;;;5036892;28;42974;-82
2023/12/05 02:22:50;;;;;;;;;;;17.00;52.30;;;;;;5026874;28;42932;-80
2023/12/05 02:25:18;;;;;;;;;;;16.90;52.20;;;;;;5025464;28;42976;-83
2023/12/05 02:27:44;;;;;;;;;;;16.90;52.30;;;;;;5028974;28;42933;-82
2023/12/05 02:30:11;;;;;;;;;;;16.80;52.20;;;;;;5034910;28;43143;-86
2023/12/05 02:32:37;;;;;;;;;;;16.80;52.20;;;;;;5026189;28;43058;-81
2023/12/05 02:35:05;;;;;;;;;;;17.00;52.30;;;;;;5026393;28;43913;-85
2023/12/05 02:37:48;;;;;;;;;;;16.90;52.30;;;;;;5025813;28;42882;-86
2023/12/05 02:40:16;;;;;;;;;;;17.00;52.30;;;;;;5019946;28;42834;-87
2023/12/05 02:42:43;;;;;;;;;;;16.80;52.80;;;;;;5026059;28;42856;-81
2023/12/05 02:45:15;;;;;;;;;;;16.80;52.70;;;;;;5032384;28;43575;-80
2023/12/05 02:47:42;;;;;;;;;;;17.00;52.90;;;;;;5021069;28;43007;-81
2023/12/05 02:50:07;;;;;;;;;;;16.90;52.30;;;;;;5025949;28;43523;-83
2023/12/05 02:52:34;;;;;;;;;;;16.80;52.20;;;;;;5025963;28;43444;-83
2023/12/05 02:55:00;;;;;;;;;;;16.90;52.80;;;;;;5025133;28;43148;-88
2023/12/05 02:57:25;;;;;;;;;;;17.00;52.30;;;;;;5023408;28;44020;-86
2023/12/05 02:59:51;;;;;;;;;;;16.80;52.10;;;;;;5026278;28;42978;-83
2023/12/05 03:02:16;;;;;;;;;;;17.10;52.30;;;;;;5025617;28;43051;-81
2023/12/05 03:04:42;;;;;;;;;;;16.80;52.20;;;;;;5026009;28;43766;-80
2023/12/05 03:07:07;;;;;;;;;;;16.80;52.30;;;;;;5025353;28;42961;-84
2023/12/05 03:09:33;;;;;;;;;;;16.90;52.20;;;;;;5025468;28;43074;-82
2023/12/05 03:11:58;;;;;;;;;;;17.00;52.30;;;;;;5025651;28;42816;-79
2023/12/05 03:14:24;;;;;;;;;;;16.80;52.20;;;;;;5025232;28;43524;-82
2023/12/05 03:16:49;;;;;;;;;;;16.90;52.20;;;;;;5025335;28;43224;-80
2023/12/05 03:19:15;;;;;;;;;;;16.80;52.20;;;;;;5031040;28;43706;-86
2023/12/05 03:21:40;;;;;;;;;;;16.80;52.30;;;;;;5025059;28;42943;-87
2023/12/05 03:24:06;;;;;;;;;;;16.80;52.30;;;;;;5025233;28;43666;-81
2023/12/05 03:26:31;;;;;;;;;;;16.80;52.40;;;;;;5024342;28;43018;-85
2023/12/05 03:28:57;;;;;;;;;;;16.80;52.40;;;;;;5024499;28;42995;-83
2023/12/05 03:31:22;;;;;;;;;;;16.80;52.30;;;;;;5025105;28;42936;-82
2023/12/05 03:33:48;;;;;;;;;;;16.80;52.30;;;;;;5013031;28;44173;-83
2023/12/05 03:36:14;;;;;;;;;;;16.60;52.90;;;;;;5022735;28;43111;-86
2023/12/05 03:38:39;;;;;;;;;;;16.80;52.20;;;;;;5024640;28;42971;-87
2023/12/05 03:41:05;;;;;;;;;;;16.80;52.80;;;;;;5025163;28;43045;-79
2023/12/05 03:43:31;;;;;;;;;;;16.80;52.40;;;;;;5025117;28;42943;-80
2023/12/05 03:45:56;;;;;;;;;;;16.80;52.90;;;;;;5025306;28;42961;-81
2023/12/05 03:48:22;;;;;;;;;;;16.80;52.90;;;;;;5025293;28;43075;-84
2023/12/05 03:50:48;;;;;;;;;;;16.80;53.00;;;;;;5024664;28;42909;-81
2023/12/05 03:53:13;;;;;;;;;;;16.80;53.00;;;;;;5025293;28;43649;-83
2023/12/05 03:55:39;;;;;;;;;;;16.80;52.40;;;;;;5024797;28;42924;-86
2023/12/05 03:58:04;;;;;;;;;;;16.80;53.00;;;;;;5023449;28;45650;-80
2023/12/05 04:00:30;;;;;;;;;;;16.70;52.90;;;;;;5024594;28;43035;-84
2023/12/05 04:02:56;;;;;;;;;;;16.70;52.90;;;;;;5024984;28;43118;-85
2023/12/05 04:05:21;;;;;;;;;;;16.80;53.00;;;;;;5024365;28;42975;-81
2023/12/05 04:07:47;;;;;;;;;;;16.70;52.30;;;;;;5024219;28;43842;-82
2023/12/05 04:10:12;;;;;;;;;;;16.80;52.90;;;;;;5025160;28;43397;-86
2023/12/05 04:12:39;;;;;;;;;;;16.80;53.00;;;;;;5024340;28;43543;-79
2023/12/05 04:15:05;;;;;;;;;;;16.80;52.40;;;;;;5024715;28;43022;-87
2023/12/05 04:17:30;;;;;;;;;;;16.80;52.60;;;;;;5021075;28;43666;-80
2023/12/05 04:19:56;;;;;;;;;;;16.70;52.30;;;;;;5036998;28;42970;-83
2023/12/05 04:22:21;;;;;;;;;;;16.70;53.00;;;;;;5025387;28;43534;-82
2023/12/05 04:24:47;;;;;;;;;;;16.60;52.40;;;;;;5031029;28;42841;-83
2023/12/05 04:27:12;;;;;;;;;;;16.70;52.40;;;;;;5026180;28;42980;-86
2023/12/05 04:29:38;;;;;;;;;;;16.80;52.50;;;;;;5024581;28;42939;-81
2023/12/05 04:32:03;;;;;;;;;;;16.80;52.50;;;;;;5024232;28;43095;-85
2023/12/05 04:34:29;;;;;;;;;;;16.70;53.00;;;;;;5024633;28;42908;-85
2023/12/05 04:36:54;;;;;;;;;;;16.60;52.30;;;;;;5013295;28;43546;-80
2023/12/05 04:39:20;;;;;;;;;;;16.70;52.40;;;;;;5024478;28;43071;-80
2023/12/05 04:41:45;;;;;;;;;;;16.70;52.70;;;;;;5024061;28;42911;-85
2023/12/05 04:44:11;;;;;;;;;;;16.70;52.20;;;;;;5024704;28;42957;-84
2023/12/05 04:46:37;;;;;;;;;;;16.50;52.10;;;;;;5022713;28;44493;-87
2023/12/05 04:49:03;;;;;;;;;;;16.80;52.20;;;;;;5023702;28;42927;-87
2023/12/05 04:51:29;;;;;;;;;;;16.70;52.70;;;;;;5023632;28;43764;-83
2023/12/05 04:53:54;;;;;;;;;;;16.60;52.90;;;;;;5024080;28;42878;-81
2023/12/05 04:56:20;;;;;;;;;;;16.70;52.90;;;;;;5023661;28;43035;-87
2023/12/05 04:58:45;;;;;;;;;;;16.70;52.90;;;;;;5024104;28;42987;-86
2023/12/05 05:01:11;;;;;;;;;;;16.70;52.40;;;;;;5023859;28;42986;-79
2023/12/05 05:03:36;;;;;;;;;;;16.70;52.40;;;;;;5022550;28;42966;-84
2023/12/05 05:06:02;;;;;;;;;;;16.90;52.50;;;;;;5023605;28;43883;-84
2023/12/05 05:08:27;;;;;;;;;;;16.70;52.90;;;;;;5024770;28;42858;-80
2023/12/05 05:10:53;;;;;;;;;;;16.70;52.30;;;;;;5024124;28;43703;-84
2023/12/05 05:13:18;;;;;;;;;;;16.70;52.90;;;;;;5023810;28;43023;-79
2023/12/05 05:15:44;;;;;;;;;;;16.60;52.90;;;;;;5023843;28;43467;-83
2023/12/05 05:18:09;;;;;;;;;;;16.50;52.20;;;;;;5021218;28;42911;-85
2023/12/05 05:20:35;;;;;;;;;;;16.70;52.40;;;;;;5019894;28;42926;-84
2023/12/05 05:23:00;;;;;;;;;;;16.80;52.40;;;;;;5017474;28;43003;-83
2023/12/05 05:25:26;;;;;;;;;;;16.60;53.00;;;;;;5018301;28;42883;-89
2023/12/05 05:27:51;;;;;;;;;;;16.80;52.40;;;;;;5019775;28;43007;-89
2023/12/05 05:30:17;;;;;;;;;;;16.80;52.30;;;;;;5017095;28;43639;-80
2023/12/05 05:32:43;;;;;;;;;;;16.80;52.20;;;;;;5027889;28;43317;-81
2023/12/05 05:35:09;;;;;;;;;;;16.70;52.10;;;;;;5037559;28;42933;-82
2023/12/05 05:37:34;;;;;;;;;;;16.70;52.20;;;;;;5027481;28;43007;-79
2023/12/05 05:40:00;;;;;;;;;;;16.60;52.70;;;;;;5022937;28;43309;-81
2023/12/05 05:42:25;;;;;;;;;;;16.60;52.80;;;;;;5031541;28;43129;-86
2023/12/05 05:44:51;;;;;;;;;;;16.70;52.90;;;;;;5023427;28;43454;-85
2023/12/05 05:47:16;;;;;;;;;;;16.80;52.30;;;;;;5026499;28;43071;-79
2023/12/05 05:49:42;;;;;;;;;;;16.60;52.80;;;;;;5024060;28;42922;-83
2023/12/05 05:52:08;;;;;;;;;;;16.60;53.20;;;;;;5028122;28;43105;-88
2023/12/05 05:54:34;;;;;;;;;;;16.70;52.20;;;;;;5025162;28;42956;-78
2023/12/05 05:56:59;;;;;;;;;;;16.80;52.30;;;;;;5021958;28;42924;-82
2023/12/05 05:59:25;;;;;;;;;;;16.60;53.00;;;;;;5011322;28;43818;-84
2023/12/05 06:01:50;;;;;;;;;;;16.60;52.20;;;;;;5033565;28;42966;-80
2023/12/05 06:04:16;;;;;;;;;;;16.50;52.10;;;;;;5020217;28;43858;-80
2023/12/05 06:06:41;;;;;;;;;;;16.60;52.30;;;;;;5020630;28;42985;-81
2023/12/05 06:09:07;;;;;;;;;;;16.60;52.10;;;;;;5012242;28;42944;-83
2023/12/05 06:11:32;;;;;;;;;;;16.70;52.10;;;;;;5024023;28;43211;-84
2023/12/05 06:13:58;;;;;;;;;;;16.60;52.70;;;;;;5024407;28;44793;-86
2023/12/05 06:16:24;;;;;;;;;;;16.90;51.90;;;;;;5021870;28;42939;-83
2023/12/05 06:18:49;;;;;;;;;;;16.60;51.30;;;;;;5016364;28;42951;-83
2023/12/05 06:21:15;;;;;;;;;;;16.30;49.50;;;;;;5028704;28;43076;-87
2023/12/05 06:23:40;;;;;;;;;;;16.40;44.90;;;;;;5020357;28;43705;-87
2023/12/05 06:26:06;;;;;;;;;;;15.90;44.80;;;;;;5022314;28;43026;-91
2023/12/05 06:28:31;;;;;;;;;;;15.50;44.50;;;;;;5031737;28;43016;-80
2023/12/05 06:30:57;;;;;;;;;;;14.80;45.10;;;;;;5023207;28;42991;-86
2023/12/05 06:33:23;;;;;;;;;;;14.50;47.30;;;;;;5045038;28;43551;-82
2023/12/05 06:35:48;;;;;;;;;;;14.90;49.10;;;;;;5028269;28;43064;-82
2023/12/05 06:38:14;;;;;;;;;;;14.80;49.40;;;;;;5026154;28;43007;-83
2023/12/05 06:40:40;;;;;;;;;;;15.20;49.70;;;;;;5025798;28;42955;-84
2023/12/05 06:43:09;;;;;;;;;;;15.20;49.60;;;;;;5024648;28;42903;-86
2023/12/05 06:45:34;;;;;;;;;;;15.40;48.90;;;;;;5024411;28;43001;-84
2023/12/05 06:48:00;;;;;;;;;;;15.60;49.30;;;;;;5025120;28;43520;-86
2023/12/05 06:50:26;;;;;;;;;;;15.60;49.20;;;;;;5026548;28;42902;-86
2023/12/05 06:52:51;;;;;;;;;;;15.60;49.20;;;;;;5026535;28;43321;-84
2023/12/05 06:55:17;;;;;;;;;;;15.70;49.80;;;;;;5025858;28;42826;-82
2023/12/05 06:57:43;;;;;;;;;;;15.90;49.30;;;;;;5023873;28;43103;-86
2023/12/05 07:00:09;;;;;;;;;;;15.90;49.30;;;;;;5020858;28;42892;-87
2023/12/05 07:02:34;;;;;;;;;;;14.20;48.50;;;;;;5024630;28;43937;-84
2023/12/05 07:05:04;;;;;;;;;;;16.10;49.40;;;;;;5025391;28;42954;-86
2023/12/05 07:07:29;;;;;;;;;;;16.10;50.00;;;;;;5025112;28;43315;-86
2023/12/05 07:09:55;;;;;;;;;;;16.00;49.40;;;;;;5025325;28;42916;-86
2023/12/05 07:12:20;;;;;;;;;;;16.10;50.10;;;;;;5025711;28;43732;-86
2023/12/05 07:14:46;;;;;;;;;;;16.10;49.50;;;;;;5020874;28;43031;-82
2023/12/05 07:17:11;;;;;;;;;;;16.20;50.30;;;;;;5025741;28;43948;-84
2023/12/05 07:19:37;;;;;;;;;;;16.30;49.80;;;;;;5025432;28;43014;-82
2023/12/05 07:22:02;;;;;;;;;;;16.30;49.80;;;;;;5024533;28;43027;-84
2023/12/05 07:24:28;;;;;;;;;;;16.10;49.90;;;;;;5024519;28;43057;-85
2023/12/05 07:26:53;;;;;;;;;;;16.20;49.90;;;;;;5025133;28;43486;-82
2023/12/05 07:29:19;;;;;;;;;;;15.90;50.30;;;;;;5022081;28;43108;-85
2023/12/05 07:31:46;;;;;;;;;;;16.20;50.00;;;;;;5022540;28;42888;-83
2023/12/05 07:34:11;;;;;;;;;;;16.10;50.20;;;;;;5024379;28;43091;-83
2023/12/05 07:36:40;;;;;;;;;;;16.20;50.20;;;;;;5020834;28;43018;-87
2023/12/05 07:39:06;;;;;;;;;;;16.20;50.30;;;;;;5023489;28;43138;-82
2023/12/05 07:41:32;;;;;;;;;;;16.20;50.30;;;;;;5022429;28;43478;-83
2023/12/05 07:43:57;;;;;;;;;;;16.20;50.30;;;;;;5024699;28;42995;-82
2023/12/05 07:46:23;;;;;;;;;;;16.20;50.30;;;;;;5025391;28;44188;-83
2023/12/05 07:48:48;;;;;;;;;;;16.30;50.40;;;;;;5022276;28;42943;-82
2023/12/05 07:51:17;;;;;;;;;;;16.30;50.30;;;;;;5021544;28;43180;-88
2023/12/05 07:53:43;;;;;;;;;;;16.40;50.30;;;;;;5019001;28;43038;-80
2023/12/05 07:56:09;;;;;;;;;;;16.40;50.80;;;;;;5020622;28;44127;-86
2023/12/05 07:58:34;;;;;;;;;;;16.40;50.30;;;;;;5025511;28;43027;-84
2023/12/05 08:01:00;;;;;;;;;;;16.50;50.20;;;;;;5025305;28;42955;-86
2023/12/05 08:03:25;;;;;;;;;;;16.60;50.30;;;;;;5025812;28;42857;-86
2023/12/05 08:05:51;;;;;;;;;;;16.50;50.20;;;;;;5024400;28;43078;-87
2023/12/05 08:08:16;;;;;;;;;;;16.60;50.30;;;;;;5026035;28;42888;-86
2023/12/05 08:10:43;;;;;;;;;;;16.60;50.30;;;;;;5025566;28;42955;-84
2023/12/05 08:13:09;;;;;;;;;;;16.70;50.40;;;;;;5025544;28;43119;-85
2023/12/05 08:15:34;;;;;;;;;;;16.60;51.00;;;;;;5024176;28;43008;-87
2023/12/05 08:18:00;;;;;;;;;;;16.90;50.60;;;;;;5019889;28;42942;-83
2023/12/05 08:20:25;;;;;;;;;;;16.60;50.40;;;;;;5024942;28;43625;-87
2023/12/05 08:22:51;;;;;;;;;;;16.70;50.50;;;;;;5025762;28;42933;-85
2023/12/05 08:25:16;;;;;;;;;;;16.70;50.50;;;;;;5025218;28;42821;-85
2023/12/05 08:27:42;;;;;;;;;;;16.60;50.50;;;;;;5024235;28;42869;-84
2023/12/05 08:30:07;;;;;;;;;;;16.70;50.60;;;;;;5019999;28;42907;-85
2023/12/05 08:32:33;;;;;;;;;;;16.70;50.60;;;;;;5024513;28;43218;-87
2023/12/05 08:34:58;;;;;;;;;;;16.70;50.60;;;;;;5023655;28;43065;-85
2023/12/05 08:37:24;;;;;;;;;;;16.60;50.80;;;;;;5024750;28;43031;-85
2023/12/05 08:39:49;;;;;;;;;;;16.80;50.70;;;;;;5024714;28;43575;-84
2023/12/05 08:42:15;;;;;;;;;;;16.90;50.80;;;;;;5023204;28;42991;-86
2023/12/05 08:44:42;;;;;;;;;;;16.70;50.70;;;;;;5023922;28;43011;-85
2023/12/05 08:47:07;;;;;;;;;;;16.90;50.80;;;;;;5024993;28;42842;-84
2023/12/05 08:49:35;;;;;;;;;;;16.70;50.70;;;;;;5025352;28;43611;-86
2023/12/05 08:52:01;;;;;;;;;;;17.10;50.70;;;;;;5027260;28;42975;-85
2023/12/05 08:54:29;;;;;;;;;;;16.70;50.60;;;;;;5028655;28;43718;-85
2023/12/05 08:56:55;;;;;;;;;;;16.80;50.70;;;;;;5025838;28;43096;-85
2023/12/05 08:59:20;;;;;;;;;;;16.80;50.60;;;;;;5028055;28;43804;-85
2023/12/05 09:01:46;;;;;;;;;;;16.80;50.60;;;;;;5028384;28;43026;-86
2023/12/05 09:04:12;;;;;;;;;;;16.70;50.50;;;;;;5038193;28;43437;-85
2023/12/05 09:06:37;;;;;;;;;;;16.70;50.50;;;;;;5030965;28;42949;-85
2023/12/05 09:09:03;;;;;;;;;;;16.70;50.50;;;;;;5028391;28;42877;-85
2023/12/05 09:11:28;;;;;;;;;;;16.90;50.70;;;;;;5028579;28;42964;-85
2023/12/05 09:13:54;;;;;;;;;;;16.70;50.60;;;;;;5028212;28;43748;-84
2023/12/05 09:16:20;;;;;;;;;;;16.80;50.70;;;;;;5027712;28;42865;-84
2023/12/05 09:18:45;;;;;;;;;;;16.70;50.70;;;;;;5027471;28;43419;-84
2023/12/05 09:21:11;;;;;;;;;;;16.70;50.70;;;;;;5026748;28;42968;-84
2023/12/05 09:23:37;;;;;;;;;;;15.90;50.30;;;;;;5028526;28;42830;-84
2023/12/05 09:26:03;;;;;;;;;;;16.80;50.70;;;;;;5028581;28;42940;-84
2023/12/05 09:28:31;;;;;;;;;;;16.90;50.70;;;;;;5028807;28;43004;-85
2023/12/05 09:30:56;;;;;;;;;;;17.10;50.80;;;;;;5028039;28;43003;-84
2023/12/05 09:33:22;;;;;;;;;;;16.90;50.70;;;;;;5027565;28;43451;-84
2023/12/05 09:35:47;;;;;;;;;;;16.70;50.70;;;;;;5027432;28;42888;-86
2023/12/05 09:38:13;;;;;;;;;;;16.70;50.60;;;;;;5027831;28;43152;-84
2023/12/05 09:40:38;;;;;;;;;;;17.00;50.80;;;;;;5028022;28;42773;-84
2023/12/05 09:43:04;;;;;;;;;;;16.90;50.70;;;;;;5028276;28;42977;-85
2023/12/05 09:45:35;;;;;;;;;;;16.70;50.80;;;;;;5027956;28;42912;-84
2023/12/05 09:48:03;;;;;;;;;;;16.80;51.30;;;;;;5027927;28;42923;-84
2023/12/05 09:50:29;;;;;;;;;;;16.70;50.60;;;;;;5027371;28;42952;-84
2023/12/05 09:52:58;;;;;;;;;;;16.70;50.70;;;;;;5027825;28;42882;-84
2023/12/05 09:55:23;;;;;;;;;;;16.90;50.80;;;;;;5027629;28;43065;-84
2023/12/05 09:57:49;;;;;;;;;;;16.70;50.70;;;;;;5028278;28;43354;-85
2023/12/05 10:00:15;;;;;;;;;;;16.70;51.30;;;;;;5027899;28;43147;-84
2023/12/05 10:02:41;;;;;;;;;;;16.70;50.70;;;;;;5026783;28;42980;-84
2023/12/05 10:05:10;;;;;;;;;;;16.70;50.70;;;;;;5026221;28;43100;-85
2023/12/05 10:07:35;;;;;;;;;;;16.80;50.80;;;;;;5027241;28;43445;-84
2023/12/05 10:10:03;;;;;;;;;;;16.80;50.80;;;;;;5027544;28;42949;-84
2023/12/05 10:12:29;;;;;;;;;;;16.70;50.70;;;;;;5027426;28;43399;-86
2023/12/05 10:14:54;;;;;;;;;;;16.80;50.80;;;;;;5027018;28;42903;-84
2023/12/05 10:17:21;;;;;;;;;;;16.90;50.90;;;;;;5026689;28;43089;-86
2023/12/05 10:19:46;;;;;;;;;;;16.90;50.90;;;;;;5026668;28;42820;-87
2023/12/05 10:22:12;;;;;;;;;;;16.80;50.80;;;;;;5027456;28;42873;-86
2023/12/05 10:24:45;;;;;;;;;;;16.60;50.80;;;;;;5027055;28;42890;-87
2023/12/05 10:27:11;;;;;;;;;;;16.90;50.90;;;;;;5026743;28;43611;-85
2023/12/05 10:29:38;;;;;;;;;;;16.80;50.90;;;;;;5026725;28;43077;-86
2023/12/05 10:32:03;;;;;;;;;;;16.80;50.90;;;;;;5026383;28;42935;-85
2023/12/05 10:34:44;;;;;;;;;;;16.70;50.80;;;;;;5026413;28;42935;-84
2023/12/05 10:37:10;;;;;;;;;;;16.60;50.90;;;;;;5026394;28;42935;-87
2023/12/05 10:39:35;;;;;;;;;;;16.70;50.90;;;;;;5026879;28;42986;-84
2023/12/05 10:42:01;;;;;;;;;;;16.70;50.90;;;;;;5026557;28;42911;-84
2023/12/05 10:44:26;;;;;;;;;;;16.80;51.00;;;;;;5026908;28;43024;-84
2023/12/05 10:46:56;;;;;;;;;;;16.70;50.90;;;;;;5026674;28;43882;-86
2023/12/05 10:49:22;;;;;;;;;;;16.70;50.80;;;;;;5026433;28;43042;-88
2023/12/05 10:51:47;;;;;;;;;;;16.80;51.00;;;;;;5027082;28;43505;-87
2023/12/05 10:54:13;;;;;;;;;;;16.70;50.90;;;;;;5025193;28;43013;-86
2023/12/05 10:56:38;;;;;;;;;;;16.70;51.00;;;;;;5026495;28;42878;-86
2023/12/05 10:59:05;;;;;;;;;;;16.70;51.00;;;;;;5026827;28;43102;-85
2023/12/05 11:01:33;;;;;;;;;;;16.80;51.00;;;;;;5026366;28;43676;-86
2023/12/05 11:04:02;;;;;;;;;;;16.70;51.00;;;;;;5026435;28;43428;-85
2023/12/05 11:06:28;;;;;;;;;;;16.80;51.00;;;;;;5024784;28;44612;-85
2023/12/05 11:08:54;;;;;;;;;;;16.70;50.90;;;;;;5026225;28;42991;-85
2023/12/05 11:11:21;;;;;;;;;;;16.60;50.90;;;;;;5025974;28;42979;-85
2023/12/05 11:13:47;;;;;;;;;;;16.70;50.90;;;;;;5026450;28;43632;-85
2023/12/05 11:16:24;;;;;;;;;;;16.80;50.90;;;;;;5025260;28;43675;-86
2023/12/05 11:18:54;;;;;;;;;;;16.80;51.00;;;;;;5026484;28;42849;-85
2023/12/05 11:21:25;;;;;;;;;;;16.80;51.00;;;;;;5031280;28;42931;-88
2023/12/05 11:23:51;;;;;;;;;;;16.70;51.00;;;;;;5035928;28;42751;-85
2023/12/05 11:26:17;;;;;;;;;;;16.80;51.00;;;;;;5024601;28;44641;-87
2023/12/05 11:28:54;;;;;;;;;;;16.70;50.90;;;;;;5024299;28;43154;-86
2023/12/05 11:31:33;;;;;;;;;;;16.80;51.00;;;;;;5025987;28;43656;-88
2023/12/05 11:34:07;;;;;;;;;;;16.70;50.80;;;;;;5026827;28;42806;-85
2023/12/05 11:36:54;;;;;;;;;;;16.70;51.00;;;;;;5025963;28;43355;-88
2023/12/05 11:39:20;;;;;;;;;;;16.70;51.00;;;;;;5026253;28;42948;-85
2023/12/05 11:42:05;;;;;;;;;;;16.90;51.10;;;;;;5026261;28;43663;-87
2023/12/05 11:44:34;;;;;;;;;;;16.90;51.00;;;;;;5025712;28;42895;-88
2023/12/05 11:47:01;;;;;;;;;;;16.70;50.90;;;;;;5025887;28;43447;-87
2023/12/05 11:49:28;;;;;;;;;;;16.90;51.10;;;;;;5025978;28;42978;-85
2023/12/05 11:51:53;;;;;;;;;;;16.60;50.90;;;;;;5025867;28;43396;-86
2023/12/05 11:54:21;;;;;;;;;;;16.70;51.00;;;;;;5025036;28;43008;-85
2023/12/05 11:56:47;;;;;;;;;;;16.60;50.90;;;;;;5025700;28;42856;-88
2023/12/05 11:59:16;;;;;;;;;;;16.50;50.90;;;;;;5026275;28;42927;-88
2023/12/05 12:01:42;;;;;;;;;;;16.50;50.90;;;;;;5025633;28;42887;-85
2023/12/05 12:04:21;;;;;;;;;;;16.70;50.90;;;;;;5024524;28;42937;-88
2023/12/05 12:06:47;;;;;;;;;;;16.70;51.00;;;;;;5025641;28;42853;-84
2023/12/05 12:09:12;;;;;;;;;;;16.70;51.00;;;;;;5025568;28;42952;-85
2023/12/05 12:11:38;;;;;;;;;;;16.70;51.00;;;;;;5025374;28;42966;-88
2023/12/05 12:14:11;;;;;;;;;;;16.80;51.10;;;;;;5025453;28;42950;-86
2023/12/05 12:16:38;;;;;;;;;;;16.70;51.00;;;;;;5024821;28;42843;-85
2023/12/05 12:19:04;;;;;;;;;;;16.70;51.60;;;;;;5025038;28;42964;-85
2023/12/05 12:21:29;;;;;;;;;;;16.60;51.00;;;;;;5025684;28;43450;-86
2023/12/05 12:23:56;;;;;;;;;;;16.80;51.00;;;;;;5025740;28;43239;-85
2023/12/05 12:26:21;;;;;;;;;;;16.70;51.00;;;;;;5024530;28;43437;-87
2023/12/05 12:28:49;;;;;;;;;;;16.80;51.00;;;;;;5023344;28;42940;-88
2023/12/05 12:31:26;;;;;;;;;;;16.70;51.00;;;;;;5025504;28;43407;-87
2023/12/05 12:33:51;;;;;;;;;;;16.70;51.00;;;;;;5025391;28;43022;-85
2023/12/05 12:36:19;;;;;;;;;;;16.60;50.90;;;;;;5024360;28;63470;-86
2023/12/05 12:38:45;;;;;;;;;;;16.50;50.80;;;;;;5025348;28;42956;-86
2023/12/05 12:41:11;;;;;;;;;;;16.70;50.90;;;;;;5025190;28;42872;-87
2023/12/05 12:43:37;;;;;;;;;;;16.60;50.90;;;;;;5025504;28;42955;-88
2023/12/05 12:46:03;;;;;;;;;;;16.70;50.90;;;;;;5024551;28;44026;-87
2023/12/05 12:48:29;;;;;;;;;;;16.70;50.90;;;;;;5025100;28;43054;-85
2023/12/05 12:50:54;;;;;;;;;;;;;;;;;;5023289;28;43855;-86
2023/12/05 12:53:20;;;;;;;;;;;16.80;50.90;;;;;;5025065;28;42946;-84
2023/12/05 12:55:46;;;;;;;;;;;16.60;50.90;;;;;;5024920;28;43919;-85
2023/12/05 12:58:11;;;;;;;;;;;16.70;51.10;;;;;;5024583;28;42817;-85
2023/12/05 13:03:27;;;;;;;;;;;16.60;50.90;;;;;;5016239;28;44228;-83
2023/12/05 13:08:34;;;;;;;;;;;16.60;50.70;;;;;;5031157;22;42933;-91
2023/12/05 13:10:59;;;;;;;;;;;16.60;50.70;;;;;;5021737;28;43079;-84
2023/12/05 13:13:25;;;;;;;;;;;16.60;50.80;;;;;;5011135;28;43068;-83
2023/12/05 13:15:57;;;;;;;;;;;;;;;;;;5018020;28;44376;-84
2023/12/05 13:18:22;;;;;;;;;;;16.80;51.00;;;;;;5021061;28;42868;-83
2023/12/05 13:20:56;;;;;;;;;;;16.80;51.00;;;;;;5024191;28;42972;-82
2023/12/05 13:23:22;;;;;;;;;;;16.60;50.80;;;;;;5019099;28;42999;-84
2023/12/05 13:25:48;;;;;;;;;;;16.60;50.80;;;;;;5023023;28;44508;-83
2023/12/05 13:31:17;;;;;;;;;;;16.70;50.80;;;;;;5019230;28;43202;-83
2023/12/05 13:33:42;;;;;;;;;;;16.70;50.90;;;;;;5023691;28;42986;-83
2023/12/05 13:36:08;;;;;;;;;;;16.60;50.50;;;;;;5055603;22;42956;-84
2023/12/05 13:38:34;;;;;;;;;;;16.70;50.60;;;;;;5055014;28;43012;-84
2023/12/05 13:40:59;;;;;;;;;;;16.70;50.60;;;;;;5055809;28;44607;-84
2023/12/05 13:43:25;;;;;;;;;;;16.80;50.60;;;;;;5045601;28;42970;-84
2023/12/05 13:56:13;;;;;;;;;;;17.00;49.70;;;;;;6046428;22;43676;-83
2023/12/05 13:58:39;;;;;;;;;;;17.00;50.10;;;;;;5016998;28;43074;-84
2023/12/05 14:01:04;;;;;;;;;;;16.90;50.30;;;;;;5016668;28;43070;-84
2023/12/05 14:03:30;;;;;;;;;;;16.80;50.40;;;;;;5013353;28;43010;-85
2023/12/05 14:09:08;;;;;;;;;;;16.90;50.50;;;;;;5002731;28;42913;-84
2023/12/05 14:11:33;;;;;;;;;;;16.90;50.50;;;;;;5007435;28;43442;-83
2023/12/05 14:13:59;;;;;;;;;;;16.90;50.60;;;;;;5003068;28;43004;-83
2023/12/05 14:20:00;;;;;;;;;;;16.90;50.70;;;;;;5002569;28;42794;-83
2023/12/05 14:22:44;;;;;;;;;;;16.80;51.00;;;;;;5013534;28;44111;-82
2023/12/05 14:25:09;;;;;;;;;;;16.90;51.50;;;;;;5004320;28;42918;-81
2023/12/05 14:30:10;;;;;;;;;;;17.00;51.30;;;;;;5504515;22;43063;-82
2023/12/05 14:32:36;;;;;;;;;;;17.00;52.10;;;;;;5026544;28;42980;-81
2023/12/05 14:35:04;;;;;;;;;;;16.90;52.20;;;;;;5024432;28;42951;-81
2023/12/05 14:37:30;;;;;;;;;;;16.90;51.70;;;;;;5026807;28;43566;-81
2023/12/05 14:39:55;;;;;;;;;;;16.90;52.00;;;;;;5025776;28;43003;-80
2023/12/05 14:42:21;;;;;;;;;;;16.80;52.50;;;;;;5025869;28;43542;-80